AEZ2384 LIEE-LIRQ
Flight info
| Callsign | AEZ2384 |
|---|---|
| Flight time | 0h 58m |
| Altitude | 34000 |
| Route | KOVAS Q125 DEXUL DCT TINTO DCT NEMBO DCT ELB L12 MAREL |
| Aircraft | B737/M-SDE2E3FGHIRWXY/LB1 |
Departure
| Time | 2026-05-08 14:24 |
|---|---|
| Airport | Cagliari Elmas Airport (LIEE) |
Arrival
| Time | 2026-05-08 15:23 |
|---|---|
| Airport | Florence Airport, Peretola (LIRQ) |
| Time | Latitude | Longitude | Altitude | Speed | Heading |
|---|---|---|---|---|---|
| 2026-05-08 13:46 | 39.25287 | 9.06014 | 14 ft | 0 kts | 322° |
| 2026-05-08 14:12 | 39.25276 | 9.06026 | 15 ft | 3 kts | 320° |
| 2026-05-08 14:12 | 39.25259 | 9.06042 | 14 ft | 3 kts | 341° |
| 2026-05-08 14:13 | 39.25244 | 9.06043 | 17 ft | 2 kts | 21° |
| 2026-05-08 14:13 | 39.25228 | 9.06038 | 14 ft | 3 kts | 323° |
| 2026-05-08 14:13 | 39.25222 | 9.06051 | 17 ft | 3 kts | 244° |
| 2026-05-08 14:13 | 39.25233 | 9.06071 | 15 ft | 1 kts | 232° |
| 2026-05-08 14:14 | 39.25233 | 9.06072 | 15 ft | 0 kts | 232° |
| 2026-05-08 14:17 | 39.25229 | 9.06065 | 15 ft | 2 kts | 232° |
| 2026-05-08 14:17 | 39.25211 | 9.06036 | 14 ft | 6 kts | 231° |
| 2026-05-08 14:17 | 39.25180 | 9.05985 | 14 ft | 7 kts | 231° |
| 2026-05-08 14:18 | 39.25148 | 9.05933 | 14 ft | 7 kts | 236° |
| 2026-05-08 14:18 | 39.25157 | 9.05876 | 15 ft | 7 kts | 313° |
| 2026-05-08 14:18 | 39.25192 | 9.05834 | 14 ft | 7 kts | 318° |
| 2026-05-08 14:18 | 39.25227 | 9.05794 | 14 ft | 7 kts | 318° |
| 2026-05-08 14:19 | 39.25266 | 9.05749 | 14 ft | 8 kts | 319° |
| 2026-05-08 14:19 | 39.25315 | 9.05693 | 14 ft | 10 kts | 317° |
| 2026-05-08 14:19 | 39.25371 | 9.05622 | 14 ft | 12 kts | 308° |
| 2026-05-08 14:19 | 39.25397 | 9.05523 | 16 ft | 12 kts | 282° |
| 2026-05-08 14:20 | 39.25418 | 9.05423 | 14 ft | 11 kts | 292° |
| 2026-05-08 14:20 | 39.25467 | 9.05333 | 14 ft | 13 kts | 314° |
| 2026-05-08 14:20 | 39.25542 | 9.05245 | 14 ft | 16 kts | 318° |
| 2026-05-08 14:20 | 39.25630 | 9.05143 | 14 ft | 18 kts | 318° |
| 2026-05-08 14:21 | 39.25729 | 9.05028 | 14 ft | 20 kts | 318° |
| 2026-05-08 14:21 | 39.25837 | 9.04904 | 14 ft | 22 kts | 318° |
| 2026-05-08 14:21 | 39.25956 | 9.04767 | 14 ft | 24 kts | 318° |
| 2026-05-08 14:21 | 39.26077 | 9.04626 | 14 ft | 19 kts | 318° |
| 2026-05-08 14:22 | 39.26121 | 9.04522 | 14 ft | 10 kts | 276° |
| 2026-05-08 14:22 | 39.26123 | 9.04498 | 14 ft | 0 kts | 274° |
| 2026-05-08 14:22 | 39.26123 | 9.04487 | 14 ft | 4 kts | 272° |
| 2026-05-08 14:23 | 39.26109 | 9.04414 | 16 ft | 12 kts | 232° |
| 2026-05-08 14:23 | 39.26032 | 9.04406 | 13 ft | 12 kts | 142° |
| 2026-05-08 14:23 | 39.26015 | 9.04425 | 13 ft | 0 kts | 139° |
| 2026-05-08 14:23 | 39.26008 | 9.04433 | 13 ft | 10 kts | 138° |
| 2026-05-08 14:24 | 39.25757 | 9.04723 | 15 ft | 86 kts | 138° |
| 2026-05-08 14:24 | 39.25142 | 9.05434 | 16 ft | 148 kts | 137° |
| 2026-05-08 14:24 | 39.24309 | 9.06407 | 450 ft | 166 kts | 138° |
| 2026-05-08 14:24 | 39.23432 | 9.07442 | 1173 ft | 171 kts | 138° |
| 2026-05-08 14:25 | 39.22513 | 9.08473 | 1854 ft | 179 kts | 140° |
| 2026-05-08 14:25 | 39.21557 | 9.09532 | 2475 ft | 193 kts | 135° |
| 2026-05-08 14:25 | 39.20561 | 9.10847 | 2955 ft | 209 kts | 133° |
| 2026-05-08 14:25 | 39.19502 | 9.12122 | 3815 ft | 203 kts | 143° |
| 2026-05-08 14:26 | 39.18167 | 9.12663 | 4422 ft | 215 kts | 185° |
| 2026-05-08 14:26 | 39.16743 | 9.11920 | 4685 ft | 233 kts | 223° |
| 2026-05-08 14:26 | 39.15663 | 9.10386 | 5334 ft | 235 kts | 231° |
| 2026-05-08 14:26 | 39.14590 | 9.08789 | 6017 ft | 238 kts | 231° |
| 2026-05-08 14:27 | 39.13661 | 9.07001 | 5893 ft | 240 kts | 255° |
| 2026-05-08 14:27 | 39.13753 | 9.04964 | 6120 ft | 242 kts | 296° |
| 2026-05-08 14:27 | 39.14726 | 9.03150 | 6713 ft | 254 kts | 308° |
| 2026-05-08 14:27 | 39.16020 | 9.01543 | 7541 ft | 263 kts | 320° |
| 2026-05-08 14:28 | 39.17479 | 9.00058 | 8347 ft | 273 kts | 319° |
| 2026-05-08 14:28 | 39.18984 | 8.98505 | 8961 ft | 279 kts | 317° |
| 2026-05-08 14:28 | 39.20416 | 8.96842 | 9665 ft | 276 kts | 311° |
| 2026-05-08 14:28 | 39.21798 | 8.95094 | 10265 ft | 285 kts | 312° |
| 2026-05-08 14:29 | 39.23345 | 8.93449 | 10096 ft | 293 kts | 328° |
| 2026-05-08 14:29 | 39.25328 | 8.92866 | 10084 ft | 295 kts | 354° |
| 2026-05-08 14:29 | 39.27345 | 8.92788 | 10079 ft | 296 kts | 353° |
| 2026-05-08 14:29 | 39.29485 | 8.92654 | 10288 ft | 320 kts | 353° |
| 2026-05-08 14:30 | 39.31754 | 8.92503 | 10982 ft | 331 kts | 353° |
| 2026-05-08 14:30 | 39.34068 | 8.92346 | 11891 ft | 335 kts | 353° |
| 2026-05-08 14:30 | 39.36412 | 8.92181 | 12841 ft | 339 kts | 352° |
| 2026-05-08 14:30 | 39.38784 | 8.92010 | 13780 ft | 344 kts | 352° |
| 2026-05-08 14:31 | 39.41197 | 8.91836 | 14606 ft | 350 kts | 352° |
| 2026-05-08 14:31 | 39.43662 | 8.92163 | 15420 ft | 368 kts | 14° |
| 2026-05-08 14:31 | 39.45982 | 8.93663 | 16343 ft | 377 kts | 25° |
| 2026-05-08 14:32 | 39.50604 | 8.97041 | 17907 ft | 392 kts | 24° |
| 2026-05-08 14:32 | 39.53010 | 8.98783 | 18674 ft | 398 kts | 24° |
| 2026-05-08 14:32 | 39.55442 | 9.00534 | 19411 ft | 403 kts | 23° |
| 2026-05-08 14:32 | 39.57909 | 9.02303 | 20156 ft | 408 kts | 23° |
| 2026-05-08 14:33 | 39.60414 | 9.04096 | 20892 ft | 413 kts | 22° |
| 2026-05-08 14:33 | 39.62947 | 9.05908 | 21616 ft | 419 kts | 22° |
| 2026-05-08 14:33 | 39.65550 | 9.07595 | 22303 ft | 418 kts | 13° |
| 2026-05-08 14:33 | 39.68336 | 9.08588 | 23048 ft | 414 kts | 5° |
| 2026-05-08 14:34 | 39.71123 | 9.09394 | 23794 ft | 416 kts | 5° |
| 2026-05-08 14:34 | 39.73951 | 9.10242 | 24460 ft | 419 kts | 6° |
| 2026-05-08 14:34 | 39.76802 | 9.11151 | 25060 ft | 424 kts | 7° |
| 2026-05-08 14:34 | 39.79678 | 9.12103 | 25624 ft | 429 kts | 7° |
| 2026-05-08 14:35 | 39.82580 | 9.13090 | 26198 ft | 435 kts | 9° |
| 2026-05-08 14:35 | 39.85444 | 9.14530 | 26747 ft | 449 kts | 20° |
| 2026-05-08 14:35 | 39.88146 | 9.16657 | 27334 ft | 459 kts | 31° |
| 2026-05-08 14:35 | 39.90612 | 9.19343 | 27987 ft | 464 kts | 37° |
| 2026-05-08 14:36 | 39.92996 | 9.22135 | 28863 ft | 459 kts | 38° |
| 2026-05-08 14:36 | 39.95328 | 9.24901 | 29571 ft | 460 kts | 38° |
| 2026-05-08 14:36 | 39.97699 | 9.27707 | 30188 ft | 461 kts | 37° |
| 2026-05-08 14:36 | 40.00081 | 9.30509 | 30815 ft | 460 kts | 37° |
| 2026-05-08 14:37 | 40.02460 | 9.33291 | 31464 ft | 458 kts | 37° |
| 2026-05-08 14:37 | 40.04837 | 9.36058 | 31983 ft | 460 kts | 37° |
| 2026-05-08 14:37 | 40.07235 | 9.38843 | 32486 ft | 460 kts | 37° |
| 2026-05-08 14:37 | 40.09616 | 9.41606 | 33122 ft | 459 kts | 37° |
| 2026-05-08 14:38 | 40.12009 | 9.44384 | 33581 ft | 460 kts | 36° |
| 2026-05-08 14:38 | 40.14367 | 9.47124 | 34017 ft | 461 kts | 36° |
| 2026-05-08 14:38 | 40.19204 | 9.52750 | 34005 ft | 463 kts | 36° |
| 2026-05-08 14:39 | 40.23971 | 9.58319 | 33981 ft | 457 kts | 36° |
| 2026-05-08 14:39 | 40.28720 | 9.63870 | 34017 ft | 460 kts | 36° |
| 2026-05-08 14:40 | 40.33484 | 9.69444 | 34030 ft | 464 kts | 36° |
| 2026-05-08 14:40 | 40.38303 | 9.75100 | 34014 ft | 465 kts | 36° |
| 2026-05-08 14:41 | 40.43103 | 9.80750 | 34004 ft | 462 kts | 36° |
| 2026-05-08 14:41 | 40.47870 | 9.86370 | 33997 ft | 459 kts | 36° |
| 2026-05-08 14:42 | 40.52578 | 9.91931 | 34012 ft | 457 kts | 35° |
| 2026-05-08 14:42 | 40.57291 | 9.97508 | 34002 ft | 455 kts | 35° |
| 2026-05-08 14:43 | 40.61986 | 10.03073 | 34010 ft | 454 kts | 35° |
| 2026-05-08 14:43 | 40.66676 | 10.08642 | 34011 ft | 455 kts | 35° |
| 2026-05-08 14:44 | 40.71374 | 10.14232 | 34027 ft | 455 kts | 36° |
| 2026-05-08 14:44 | 40.76021 | 10.19776 | 34008 ft | 453 kts | 36° |
| 2026-05-08 14:45 | 40.80678 | 10.25342 | 33999 ft | 450 kts | 35° |
| 2026-05-08 14:45 | 40.85310 | 10.30889 | 33999 ft | 449 kts | 35° |
| 2026-05-08 14:46 | 40.89926 | 10.36426 | 34018 ft | 448 kts | 36° |
| 2026-05-08 14:46 | 40.94508 | 10.41932 | 33999 ft | 448 kts | 36° |
| 2026-05-08 14:47 | 40.99116 | 10.47480 | 33998 ft | 447 kts | 36° |
| 2026-05-08 14:47 | 41.03718 | 10.53034 | 33996 ft | 447 kts | 36° |
| 2026-05-08 14:48 | 41.08311 | 10.58587 | 34020 ft | 447 kts | 35° |
| 2026-05-08 14:48 | 41.12906 | 10.64154 | 34005 ft | 448 kts | 35° |
| 2026-05-08 14:49 | 41.17472 | 10.69697 | 33988 ft | 448 kts | 35° |
| 2026-05-08 14:49 | 41.22060 | 10.75278 | 33992 ft | 447 kts | 35° |
| 2026-05-08 14:50 | 41.26647 | 10.80869 | 34001 ft | 447 kts | 35° |
| 2026-05-08 14:50 | 41.31231 | 10.86468 | 33995 ft | 447 kts | 35° |
| 2026-05-08 14:51 | 41.35776 | 10.92031 | 33988 ft | 447 kts | 35° |
| 2026-05-08 14:51 | 41.40341 | 10.97628 | 33990 ft | 446 kts | 35° |
| 2026-05-08 14:52 | 41.47610 | 11.04795 | 34014 ft | 412 kts | 4° |
| 2026-05-08 14:52 | 41.50382 | 11.05343 | 33984 ft | 397 kts | 351° |
| 2026-05-08 14:53 | 41.53066 | 11.05054 | 33995 ft | 380 kts | 338° |
| 2026-05-08 14:53 | 41.58118 | 11.03285 | 33990 ft | 379 kts | 335° |
| 2026-05-08 14:54 | 41.63219 | 11.01397 | 33986 ft | 381 kts | 335° |
| 2026-05-08 14:54 | 41.68351 | 10.99534 | 34006 ft | 383 kts | 336° |
| 2026-05-08 14:55 | 41.73503 | 10.97690 | 33985 ft | 383 kts | 336° |
| 2026-05-08 14:55 | 41.78614 | 10.95868 | 33980 ft | 382 kts | 336° |
| 2026-05-08 14:56 | 41.83744 | 10.94037 | 33985 ft | 381 kts | 336° |
| 2026-05-08 14:56 | 41.88851 | 10.92211 | 34004 ft | 379 kts | 336° |
| 2026-05-08 14:57 | 41.93954 | 10.90381 | 33991 ft | 380 kts | 336° |
| 2026-05-08 14:57 | 41.99027 | 10.88559 | 33990 ft | 380 kts | 336° |
| 2026-05-08 14:58 | 42.04135 | 10.86722 | 33989 ft | 380 kts | 336° |
| 2026-05-08 14:58 | 42.09256 | 10.84877 | 33990 ft | 381 kts | 336° |
| 2026-05-08 14:59 | 42.14378 | 10.83029 | 33994 ft | 382 kts | 336° |
| 2026-05-08 14:59 | 42.22047 | 10.80257 | 33985 ft | 382 kts | 336° |
| 2026-05-08 15:00 | 42.27180 | 10.78395 | 33988 ft | 381 kts | 335° |
| 2026-05-08 15:00 | 42.29666 | 10.77169 | 33281 ft | 380 kts | 324° |
| 2026-05-08 15:00 | 42.31899 | 10.75415 | 32814 ft | 371 kts | 320° |
| 2026-05-08 15:01 | 42.34074 | 10.73542 | 32348 ft | 367 kts | 320° |
| 2026-05-08 15:01 | 42.36208 | 10.71676 | 31879 ft | 364 kts | 320° |
| 2026-05-08 15:01 | 42.38325 | 10.69824 | 31456 ft | 361 kts | 320° |
| 2026-05-08 15:01 | 42.40394 | 10.68020 | 31045 ft | 358 kts | 320° |
| 2026-05-08 15:02 | 42.42477 | 10.66210 | 30630 ft | 355 kts | 320° |
| 2026-05-08 15:02 | 42.44547 | 10.64416 | 30224 ft | 352 kts | 320° |
| 2026-05-08 15:02 | 42.46603 | 10.62635 | 29776 ft | 349 kts | 320° |
| 2026-05-08 15:02 | 42.48638 | 10.60873 | 29319 ft | 345 kts | 320° |
| 2026-05-08 15:03 | 42.50649 | 10.59133 | 28887 ft | 341 kts | 320° |
| 2026-05-08 15:03 | 42.52638 | 10.57410 | 28435 ft | 337 kts | 320° |
| 2026-05-08 15:03 | 42.54608 | 10.55702 | 28029 ft | 334 kts | 320° |
| 2026-05-08 15:03 | 42.56534 | 10.54030 | 27590 ft | 332 kts | 320° |
| 2026-05-08 15:04 | 42.58471 | 10.52348 | 27163 ft | 330 kts | 321° |
| 2026-05-08 15:04 | 42.60392 | 10.50677 | 26741 ft | 327 kts | 321° |
| 2026-05-08 15:04 | 42.62306 | 10.49013 | 26324 ft | 325 kts | 321° |
| 2026-05-08 15:04 | 42.64203 | 10.47361 | 25910 ft | 323 kts | 321° |
| 2026-05-08 15:05 | 42.66093 | 10.45715 | 25501 ft | 321 kts | 321° |
| 2026-05-08 15:05 | 42.67969 | 10.44081 | 25096 ft | 320 kts | 321° |
| 2026-05-08 15:05 | 42.69836 | 10.42453 | 24690 ft | 319 kts | 322° |
| 2026-05-08 15:05 | 42.71737 | 10.40963 | 24270 ft | 323 kts | 333° |
| 2026-05-08 15:06 | 42.73985 | 10.40449 | 23913 ft | 334 kts | 355° |
| 2026-05-08 15:06 | 42.76294 | 10.40896 | 23622 ft | 341 kts | 12° |
| 2026-05-08 15:06 | 42.78565 | 10.41887 | 23218 ft | 345 kts | 15° |
| 2026-05-08 15:06 | 42.80855 | 10.42980 | 22754 ft | 352 kts | 16° |
| 2026-05-08 15:07 | 42.83181 | 10.44106 | 22308 ft | 357 kts | 16° |
| 2026-05-08 15:07 | 42.85526 | 10.45232 | 21858 ft | 356 kts | 16° |
| 2026-05-08 15:07 | 42.87860 | 10.46340 | 21404 ft | 354 kts | 16° |
| 2026-05-08 15:07 | 42.90148 | 10.47415 | 20981 ft | 351 kts | 16° |
| 2026-05-08 15:08 | 42.92447 | 10.48487 | 20548 ft | 348 kts | 16° |
| 2026-05-08 15:08 | 42.93987 | 10.49202 | 20268 ft | 346 kts | 16° |
| 2026-05-08 15:08 | 42.96998 | 10.50597 | 19705 ft | 343 kts | 16° |
| 2026-05-08 15:08 | 42.99255 | 10.51641 | 19288 ft | 341 kts | 16° |
| 2026-05-08 15:09 | 43.01491 | 10.52676 | 18871 ft | 339 kts | 16° |
| 2026-05-08 15:09 | 43.03722 | 10.53709 | 18453 ft | 337 kts | 16° |
| 2026-05-08 15:09 | 43.05938 | 10.54736 | 17995 ft | 336 kts | 16° |
| 2026-05-08 15:09 | 43.08117 | 10.55747 | 17532 ft | 334 kts | 17° |
| 2026-05-08 15:10 | 43.10309 | 10.56764 | 17092 ft | 332 kts | 17° |
| 2026-05-08 15:10 | 43.12490 | 10.57777 | 16654 ft | 329 kts | 17° |
| 2026-05-08 15:10 | 43.14652 | 10.58782 | 16238 ft | 327 kts | 17° |
| 2026-05-08 15:10 | 43.16800 | 10.59782 | 15818 ft | 325 kts | 17° |
| 2026-05-08 15:11 | 43.18929 | 10.60773 | 15408 ft | 323 kts | 18° |
| 2026-05-08 15:11 | 43.21050 | 10.61761 | 14996 ft | 321 kts | 18° |
| 2026-05-08 15:11 | 43.23158 | 10.62744 | 14580 ft | 319 kts | 18° |
| 2026-05-08 15:11 | 43.25230 | 10.63711 | 14169 ft | 318 kts | 18° |
| 2026-05-08 15:12 | 43.27318 | 10.64686 | 13751 ft | 317 kts | 18° |
| 2026-05-08 15:12 | 43.29399 | 10.65658 | 13373 ft | 313 kts | 18° |
| 2026-05-08 15:12 | 43.31435 | 10.66610 | 13005 ft | 309 kts | 18° |
| 2026-05-08 15:12 | 43.33461 | 10.67556 | 12617 ft | 306 kts | 18° |
| 2026-05-08 15:13 | 43.35468 | 10.68494 | 12228 ft | 303 kts | 18° |
| 2026-05-08 15:13 | 43.37421 | 10.69409 | 12122 ft | 291 kts | 18° |
| 2026-05-08 15:13 | 43.39290 | 10.70285 | 11947 ft | 276 kts | 18° |
| 2026-05-08 15:13 | 43.41083 | 10.71119 | 11628 ft | 268 kts | 18° |
| 2026-05-08 15:14 | 43.42818 | 10.71924 | 11311 ft | 259 kts | 18° |
| 2026-05-08 15:14 | 43.44492 | 10.72701 | 11031 ft | 257 kts | 18° |
| 2026-05-08 15:14 | 43.46201 | 10.73498 | 10732 ft | 261 kts | 19° |
| 2026-05-08 15:14 | 43.47818 | 10.74604 | 10411 ft | 260 kts | 33° |
| 2026-05-08 15:15 | 43.49324 | 10.75962 | 10114 ft | 258 kts | 32° |
| 2026-05-08 15:15 | 43.50842 | 10.77253 | 9837 ft | 255 kts | 31° |
| 2026-05-08 15:15 | 43.52399 | 10.78553 | 9050 ft | 271 kts | 31° |
| 2026-05-08 15:15 | 43.54049 | 10.79924 | 8303 ft | 283 kts | 31° |
| 2026-05-08 15:16 | 43.55678 | 10.81520 | 7556 ft | 293 kts | 41° |
| 2026-05-08 15:16 | 43.57122 | 10.83546 | 6952 ft | 297 kts | 47° |
| 2026-05-08 15:16 | 43.58453 | 10.85640 | 6556 ft | 293 kts | 49° |
| 2026-05-08 15:16 | 43.59783 | 10.87743 | 6152 ft | 289 kts | 48° |
| 2026-05-08 15:17 | 43.61104 | 10.89803 | 5763 ft | 284 kts | 48° |
| 2026-05-08 15:17 | 43.62406 | 10.91819 | 5385 ft | 279 kts | 48° |
| 2026-05-08 15:17 | 43.63691 | 10.93803 | 5032 ft | 275 kts | 48° |
| 2026-05-08 15:17 | 43.64957 | 10.95758 | 4663 ft | 268 kts | 49° |
| 2026-05-08 15:18 | 43.66170 | 10.97630 | 4313 ft | 256 kts | 49° |
| 2026-05-08 15:18 | 43.67332 | 10.99424 | 3983 ft | 246 kts | 49° |
| 2026-05-08 15:18 | 43.68450 | 11.01151 | 3664 ft | 237 kts | 49° |
| 2026-05-08 15:18 | 43.69514 | 11.02793 | 3361 ft | 228 kts | 49° |
| 2026-05-08 15:19 | 43.70554 | 11.04397 | 3050 ft | 220 kts | 49° |
| 2026-05-08 15:19 | 43.71554 | 11.05941 | 2787 ft | 212 kts | 49° |
| 2026-05-08 15:19 | 43.72522 | 11.07437 | 2515 ft | 203 kts | 50° |
| 2026-05-08 15:19 | 43.73418 | 11.08818 | 2247 ft | 184 kts | 50° |
| 2026-05-08 15:20 | 43.74237 | 11.10077 | 2032 ft | 173 kts | 49° |
| 2026-05-08 15:20 | 43.75048 | 11.11332 | 1822 ft | 174 kts | 50° |
| 2026-05-08 15:20 | 43.75830 | 11.12536 | 1551 ft | 165 kts | 49° |
| 2026-05-08 15:20 | 43.76559 | 11.13661 | 1352 ft | 152 kts | 50° |
| 2026-05-08 15:21 | 43.77226 | 11.14690 | 1165 ft | 137 kts | 50° |
| 2026-05-08 15:21 | 43.77845 | 11.15618 | 962 ft | 128 kts | 47° |
| 2026-05-08 15:21 | 43.78431 | 11.16514 | 854 ft | 125 kts | 50° |
| 2026-05-08 15:21 | 43.78995 | 11.17380 | 686 ft | 119 kts | 47° |
| 2026-05-08 15:22 | 43.79559 | 11.18247 | 449 ft | 123 kts | 51° |
| 2026-05-08 15:22 | 43.80108 | 11.19137 | 319 ft | 123 kts | 49° |
| 2026-05-08 15:22 | 43.80692 | 11.20017 | 154 ft | 126 kts | 49° |
| 2026-05-08 15:22 | 43.81164 | 11.20754 | 126 ft | 57 kts | 49° |
| 2026-05-08 15:23 | 43.81240 | 11.20872 | 131 ft | 3 kts | 48° |
| 2026-05-08 15:23 | 43.81275 | 11.20926 | 132 ft | 13 kts | 48° |
| 2026-05-08 15:23 | 43.81361 | 11.21058 | 131 ft | 24 kts | 48° |
| 2026-05-08 15:23 | 43.81463 | 11.21214 | 127 ft | 14 kts | 50° |
| 2026-05-08 15:24 | 43.81500 | 11.21323 | 135 ft | 10 kts | 115° |
| 2026-05-08 15:24 | 43.81421 | 11.21373 | 141 ft | 14 kts | 164° |
| 2026-05-08 15:24 | 43.81326 | 11.21326 | 144 ft | 20 kts | 228° |
| 2026-05-08 15:24 | 43.81257 | 11.21185 | 140 ft | 18 kts | 262° |
| 2026-05-08 15:25 | 43.81266 | 11.20983 | 134 ft | 22 kts | 274° |
| 2026-05-08 15:25 | 43.81201 | 11.20811 | 127 ft | 20 kts | 228° |
| 2026-05-08 15:25 | 43.81109 | 11.20670 | 124 ft | 19 kts | 227° |
| 2026-05-08 15:25 | 43.81018 | 11.20530 | 123 ft | 21 kts | 228° |
| 2026-05-08 15:26 | 43.80918 | 11.20375 | 125 ft | 23 kts | 228° |
| 2026-05-08 15:26 | 43.80804 | 11.20199 | 131 ft | 26 kts | 228° |
| 2026-05-08 15:26 | 43.80688 | 11.20037 | 129 ft | 14 kts | 201° |
| 2026-05-08 15:26 | 43.80596 | 11.20005 | 131 ft | 13 kts | 193° |
| 2026-05-08 15:27 | 43.80526 | 11.19992 | 132 ft | 8 kts | 158° |
| 2026-05-08 15:27 | 43.80487 | 11.20040 | 132 ft | 8 kts | 145° |
| 2026-05-08 15:27 | 43.80432 | 11.20043 | 130 ft | 8 kts | 186° |
| 2026-05-08 15:27 | 43.80377 | 11.20033 | 128 ft | 8 kts | 191° |
| 2026-05-08 15:28 | 43.80339 | 11.20059 | 124 ft | 7 kts | 126° |
| 2026-05-08 15:28 | 43.80323 | 11.20087 | 123 ft | 0 kts | 129° |